sensor_id;sensor_type;location;lat;lon;timestamp;temperature;humidity
26964;DHT22;14521;48.148;-1.656;2022-07-22T00:03:14;24.60;86.60
26964;DHT22;14521;48.148;-1.656;2022-07-22T00:06:36;24.40;87.40
26964;DHT22;14521;48.148;-1.656;2022-07-22T00:09:58;24.20;88.30
26964;DHT22;14521;48.148;-1.656;2022-07-22T00:13:21;24.20;88.50
26964;DHT22;14521;48.148;-1.656;2022-07-22T00:16:43;24.20;88.10
26964;DHT22;14521;48.148;-1.656;2022-07-22T00:20:07;24.30;87.80
26964;DHT22;14521;48.148;-1.656;2022-07-22T00:23:29;24.20;88.30
26964;DHT22;14521;48.148;-1.656;2022-07-22T00:26:52;24.20;88.30
26964;DHT22;14521;48.148;-1.656;2022-07-22T00:30:15;24.20;88.40
26964;DHT22;14521;48.148;-1.656;2022-07-22T00:33:38;24.20;88.50
26964;DHT22;14521;48.148;-1.656;2022-07-22T00:37:01;24.00;88.70
26964;DHT22;14521;48.148;-1.656;2022-07-22T00:40:23;24.00;89.30
26964;DHT22;14521;48.148;-1.656;2022-07-22T00:43:53;23.90;89.60
26964;DHT22;14521;48.148;-1.656;2022-07-22T00:47:17;23.90;89.80
26964;DHT22;14521;48.148;-1.656;2022-07-22T00:50:40;23.80;89.90
26964;DHT22;14521;48.148;-1.656;2022-07-22T00:54:04;23.90;89.80
26964;DHT22;14521;48.148;-1.656;2022-07-22T00:57:26;24.00;89.70
26964;DHT22;14521;48.148;-1.656;2022-07-22T01:00:49;23.90;89.70
26964;DHT22;14521;48.148;-1.656;2022-07-22T01:04:12;23.80;90.10
26964;DHT22;14521;48.148;-1.656;2022-07-22T01:07:35;23.70;90.30
26964;DHT22;14521;48.148;-1.656;2022-07-22T01:11:12;23.70;90.40
26964;DHT22;14521;48.148;-1.656;2022-07-22T01:14:36;23.70;90.40
26964;DHT22;14521;48.148;-1.656;2022-07-22T01:17:58;23.70;90.50
26964;DHT22;14521;48.148;-1.656;2022-07-22T01:21:21;23.70;90.50
26964;DHT22;14521;48.148;-1.656;2022-07-22T01:24:43;23.70;90.60
26964;DHT22;14521;48.148;-1.656;2022-07-22T01:28:06;23.80;90.50
26964;DHT22;14521;48.148;-1.656;2022-07-22T01:31:28;23.90;90.30
26964;DHT22;14521;48.148;-1.656;2022-07-22T01:34:52;23.90;90.30
26964;DHT22;14521;48.148;-1.656;2022-07-22T01:38:14;23.70;90.60
26964;DHT22;14521;48.148;-1.656;2022-07-22T01:41:37;23.60;90.80
26964;DHT22;14521;48.148;-1.656;2022-07-22T01:45:03;23.60;91.10
26964;DHT22;14521;48.148;-1.656;2022-07-22T01:48:26;23.60;91.00
26964;DHT22;14521;48.148;-1.656;2022-07-22T01:51:49;23.60;91.10
26964;DHT22;14521;48.148;-1.656;2022-07-22T01:55:11;23.60;91.20
26964;DHT22;14521;48.148;-1.656;2022-07-22T01:58:34;23.60;91.10
26964;DHT22;14521;48.148;-1.656;2022-07-22T02:02:03;23.60;91.20
26964;DHT22;14521;48.148;-1.656;2022-07-22T02:05:25;23.60;91.30
26964;DHT22;14521;48.148;-1.656;2022-07-22T02:08:50;23.60;91.40
26964;DHT22;14521;48.148;-1.656;2022-07-22T02:12:42;23.60;91.40
26964;DHT22;14521;48.148;-1.656;2022-07-22T02:16:05;23.70;91.30
26964;DHT22;14521;48.148;-1.656;2022-07-22T02:19:29;23.70;91.30
26964;DHT22;14521;48.148;-1.656;2022-07-22T02:22:52;23.80;91.30
26964;DHT22;14521;48.148;-1.656;2022-07-22T02:26:15;23.70;91.30
26964;DHT22;14521;48.148;-1.656;2022-07-22T02:29:39;23.60;91.60
26964;DHT22;14521;48.148;-1.656;2022-07-22T02:33:02;23.60;91.80
26964;DHT22;14521;48.148;-1.656;2022-07-22T02:36:24;23.60;91.90
26964;DHT22;14521;48.148;-1.656;2022-07-22T02:39:48;23.50;92.00
26964;DHT22;14521;48.148;-1.656;2022-07-22T02:43:10;23.50;92.10
26964;DHT22;14521;48.148;-1.656;2022-07-22T02:46:33;23.60;92.10
26964;DHT22;14521;48.148;-1.656;2022-07-22T02:50:05;23.60;92.20
26964;DHT22;14521;48.148;-1.656;2022-07-22T02:53:28;23.50;92.40
26964;DHT22;14521;48.148;-1.656;2022-07-22T02:56:53;23.40;92.60
26964;DHT22;14521;48.148;-1.656;2022-07-22T03:00:16;23.40;92.90
26964;DHT22;14521;48.148;-1.656;2022-07-22T03:03:40;23.40;93.10
26964;DHT22;14521;48.148;-1.656;2022-07-22T03:07:03;23.40;92.90
26964;DHT22;14521;48.148;-1.656;2022-07-22T03:10:28;23.50;92.80
26964;DHT22;14521;48.148;-1.656;2022-07-22T03:13:50;23.60;92.70
26964;DHT22;14521;48.148;-1.656;2022-07-22T03:17:14;23.60;92.60
26964;DHT22;14521;48.148;-1.656;2022-07-22T03:20:36;23.70;92.40
26964;DHT22;14521;48.148;-1.656;2022-07-22T03:23:59;23.70;92.60
26964;DHT22;14521;48.148;-1.656;2022-07-22T03:27:21;23.60;93.10
26964;DHT22;14521;48.148;-1.656;2022-07-22T03:30:44;23.60;92.70
26964;DHT22;14521;48.148;-1.656;2022-07-22T03:34:08;23.70;92.60
26964;DHT22;14521;48.148;-1.656;2022-07-22T03:37:34;23.70;92.70
26964;DHT22;14521;48.148;-1.656;2022-07-22T03:40:57;23.70;92.80
26964;DHT22;14521;48.148;-1.656;2022-07-22T03:44:19;23.60;93.00
26964;DHT22;14521;48.148;-1.656;2022-07-22T03:47:42;23.60;93.10
26964;DHT22;14521;48.148;-1.656;2022-07-22T03:51:05;23.60;93.10
26964;DHT22;14521;48.148;-1.656;2022-07-22T03:54:27;23.60;93.10
26964;DHT22;14521;48.148;-1.656;2022-07-22T03:57:50;23.60;93.10
26964;DHT22;14521;48.148;-1.656;2022-07-22T04:01:32;23.60;93.10
26964;DHT22;14521;48.148;-1.656;2022-07-22T04:04:55;23.60;93.20
26964;DHT22;14521;48.148;-1.656;2022-07-22T04:08:18;23.60;93.30
26964;DHT22;14521;48.148;-1.656;2022-07-22T04:11:41;23.60;93.30
26964;DHT22;14521;48.148;-1.656;2022-07-22T04:15:06;23.50;93.30
26964;DHT22;14521;48.148;-1.656;2022-07-22T04:18:32;23.50;93.40
26964;DHT22;14521;48.148;-1.656;2022-07-22T04:21:55;23.50;93.40
26964;DHT22;14521;48.148;-1.656;2022-07-22T04:25:21;23.50;93.20
26964;DHT22;14521;48.148;-1.656;2022-07-22T04:28:43;23.40;93.50
26964;DHT22;14521;48.148;-1.656;2022-07-22T04:32:06;23.40;93.50
26964;DHT22;14521;48.148;-1.656;2022-07-22T04:35:29;23.50;93.40
26964;DHT22;14521;48.148;-1.656;2022-07-22T04:39:12;23.40;93.60
26964;DHT22;14521;48.148;-1.656;2022-07-22T04:42:41;23.40;93.70
26964;DHT22;14521;48.148;-1.656;2022-07-22T04:46:03;23.40;93.60
26964;DHT22;14521;48.148;-1.656;2022-07-22T04:49:28;23.40;93.50
26964;DHT22;14521;48.148;-1.656;2022-07-22T04:52:53;23.50;93.40
26964;DHT22;14521;48.148;-1.656;2022-07-22T04:56:15;23.50;93.30
26964;DHT22;14521;48.148;-1.656;2022-07-22T04:59:39;23.40;93.40
26964;DHT22;14521;48.148;-1.656;2022-07-22T05:03:02;23.40;93.50
26964;DHT22;14521;48.148;-1.656;2022-07-22T05:06:24;23.40;93.60
26964;DHT22;14521;48.148;-1.656;2022-07-22T05:09:48;23.40;93.70
26964;DHT22;14521;48.148;-1.656;2022-07-22T05:13:12;23.40;93.50
26964;DHT22;14521;48.148;-1.656;2022-07-22T05:16:36;23.40;93.50
26964;DHT22;14521;48.148;-1.656;2022-07-22T05:20:04;23.40;93.70
26964;DHT22;14521;48.148;-1.656;2022-07-22T05:23:27;23.30;94.10
26964;DHT22;14521;48.148;-1.656;2022-07-22T05:26:51;23.40;93.70
26964;DHT22;14521;48.148;-1.656;2022-07-22T05:30:13;23.40;93.70
26964;DHT22;14521;48.148;-1.656;2022-07-22T05:33:43;23.40;93.70
26964;DHT22;14521;48.148;-1.656;2022-07-22T05:37:26;23.40;93.60
26964;DHT22;14521;48.148;-1.656;2022-07-22T05:40:48;23.50;93.60
26964;DHT22;14521;48.148;-1.656;2022-07-22T05:44:11;23.50;93.50
26964;DHT22;14521;48.148;-1.656;2022-07-22T05:47:33;23.60;93.30
26964;DHT22;14521;48.148;-1.656;2022-07-22T05:50:55;23.70;93.10
26964;DHT22;14521;48.148;-1.656;2022-07-22T05:54:18;23.70;92.90
26964;DHT22;14521;48.148;-1.656;2022-07-22T05:57:40;23.70;93.20
26964;DHT22;14521;48.148;-1.656;2022-07-22T06:01:03;23.70;93.40
26964;DHT22;14521;48.148;-1.656;2022-07-22T06:04:27;23.60;93.50
26964;DHT22;14521;48.148;-1.656;2022-07-22T06:07:49;23.70;93.50
26964;DHT22;14521;48.148;-1.656;2022-07-22T06:11:25;23.60;93.80
26964;DHT22;14521;48.148;-1.656;2022-07-22T06:14:47;23.70;93.50
26964;DHT22;14521;48.148;-1.656;2022-07-22T06:18:10;23.60;93.70
26964;DHT22;14521;48.148;-1.656;2022-07-22T06:21:32;23.60;93.80
26964;DHT22;14521;48.148;-1.656;2022-07-22T06:24:57;23.70;93.50
26964;DHT22;14521;48.148;-1.656;2022-07-22T06:28:39;23.80;93.30
26964;DHT22;14521;48.148;-1.656;2022-07-22T06:32:01;23.70;93.40
26964;DHT22;14521;48.148;-1.656;2022-07-22T06:35:23;23.70;93.70
26964;DHT22;14521;48.148;-1.656;2022-07-22T06:38:47;23.80;93.70
26964;DHT22;14521;48.148;-1.656;2022-07-22T06:42:28;23.90;93.50
26964;DHT22;14521;48.148;-1.656;2022-07-22T06:46:10;24.00;93.10
26964;DHT22;14521;48.148;-1.656;2022-07-22T06:49:45;24.00;93.00
26964;DHT22;14521;48.148;-1.656;2022-07-22T06:53:09;24.20;92.60
26964;DHT22;14521;48.148;-1.656;2022-07-22T06:56:32;24.30;92.30
26964;DHT22;14521;48.148;-1.656;2022-07-22T06:59:55;24.30;92.30
26964;DHT22;14521;48.148;-1.656;2022-07-22T07:03:19;24.40;92.10
26964;DHT22;14521;48.148;-1.656;2022-07-22T07:06:58;24.30;92.00
26964;DHT22;14521;48.148;-1.656;2022-07-22T07:10:27;24.30;92.30
26964;DHT22;14521;48.148;-1.656;2022-07-22T07:13:58;24.10;92.60
26964;DHT22;14521;48.148;-1.656;2022-07-22T07:17:20;24.00;92.90
26964;DHT22;14521;48.148;-1.656;2022-07-22T07:20:43;24.00;93.10
26964;DHT22;14521;48.148;-1.656;2022-07-22T07:24:05;24.00;93.40
26964;DHT22;14521;48.148;-1.656;2022-07-22T07:27:29;24.10;93.10
26964;DHT22;14521;48.148;-1.656;2022-07-22T07:30:52;24.20;93.00
26964;DHT22;14521;48.148;-1.656;2022-07-22T07:34:16;24.30;93.10
26964;DHT22;14521;48.148;-1.656;2022-07-22T07:37:39;24.50;92.80
26964;DHT22;14521;48.148;-1.656;2022-07-22T07:41:02;24.60;92.60
26964;DHT22;14521;48.148;-1.656;2022-07-22T07:44:24;24.30;93.30
26964;DHT22;14521;48.148;-1.656;2022-07-22T07:47:47;24.30;93.40
26964;DHT22;14521;48.148;-1.656;2022-07-22T07:51:10;24.50;93.30
26964;DHT22;14521;48.148;-1.656;2022-07-22T07:54:36;24.80;92.80
26964;DHT22;14521;48.148;-1.656;2022-07-22T07:58:18;25.00;92.00
26964;DHT22;14521;48.148;-1.656;2022-07-22T08:01:43;25.10;92.00
26964;DHT22;14521;48.148;-1.656;2022-07-22T08:05:20;25.00;92.20
26964;DHT22;14521;48.148;-1.656;2022-07-22T08:08:45;24.90;92.40
26964;DHT22;14521;48.148;-1.656;2022-07-22T08:12:14;24.90;92.30
26964;DHT22;14521;48.148;-1.656;2022-07-22T08:15:52;24.80;92.80
26964;DHT22;14521;48.148;-1.656;2022-07-22T08:19:18;24.60;93.20
26964;DHT22;14521;48.148;-1.656;2022-07-22T08:22:40;24.60;93.10
26964;DHT22;14521;48.148;-1.656;2022-07-22T08:26:05;24.70;92.80
26964;DHT22;14521;48.148;-1.656;2022-07-22T08:29:28;24.70;92.90
26964;DHT22;14521;48.148;-1.656;2022-07-22T08:32:50;24.80;92.60
26964;DHT22;14521;48.148;-1.656;2022-07-22T08:36:13;24.80;92.50
26964;DHT22;14521;48.148;-1.656;2022-07-22T08:39:36;25.00;91.70
26964;DHT22;14521;48.148;-1.656;2022-07-22T08:42:59;25.10;91.40
26964;DHT22;14521;48.148;-1.656;2022-07-22T08:46:25;24.90;92.10
26964;DHT22;14521;48.148;-1.656;2022-07-22T08:53:42;24.20;93.90
26964;DHT22;14521;48.148;-1.656;2022-07-22T08:57:07;24.30;94.30
26964;DHT22;14521;48.148;-1.656;2022-07-22T09:00:29;24.10;94.50
26964;DHT22;14521;48.148;-1.656;2022-07-22T09:07:43;24.20;94.90
26964;DHT22;14521;48.148;-1.656;2022-07-22T09:11:21;24.20;94.40
26964;DHT22;14521;48.148;-1.656;2022-07-22T09:15:04;24.30;94.50
26964;DHT22;14521;48.148;-1.656;2022-07-22T09:22:09;24.20;94.60
26964;DHT22;14521;48.148;-1.656;2022-07-22T09:25:56;24.30;94.80
26964;DHT22;14521;48.148;-1.656;2022-07-22T09:29:24;24.10;95.20
26964;DHT22;14521;48.148;-1.656;2022-07-22T09:33:13;24.10;95.60
26964;DHT22;14521;48.148;-1.656;2022-07-22T09:37:10;24.00;95.90
26964;DHT22;14521;48.148;-1.656;2022-07-22T09:40:38;24.00;96.30
26964;DHT22;14521;48.148;-1.656;2022-07-22T09:44:23;23.90;96.70
26964;DHT22;14521;48.148;-1.656;2022-07-22T09:47:49;23.90;96.70
26964;DHT22;14521;48.148;-1.656;2022-07-22T09:51:30;23.90;97.00
26964;DHT22;14521;48.148;-1.656;2022-07-22T09:55:14;23.90;97.40
26964;DHT22;14521;48.148;-1.656;2022-07-22T09:58:38;23.80;97.90
26964;DHT22;14521;48.148;-1.656;2022-07-22T10:02:16;23.80;98.20
26964;DHT22;14521;48.148;-1.656;2022-07-22T10:05:42;23.80;98.10
26964;DHT22;14521;48.148;-1.656;2022-07-22T10:09:05;23.70;98.20
26964;DHT22;14521;48.148;-1.656;2022-07-22T10:12:36;23.70;98.60
26964;DHT22;14521;48.148;-1.656;2022-07-22T10:16:00;23.70;98.40
26964;DHT22;14521;48.148;-1.656;2022-07-22T10:19:24;23.70;98.40
26964;DHT22;14521;48.148;-1.656;2022-07-22T10:26:11;23.70;98.50
26964;DHT22;14521;48.148;-1.656;2022-07-22T10:29:42;23.70;99.20
26964;DHT22;14521;48.148;-1.656;2022-07-22T10:36:37;23.70;99.70
26964;DHT22;14521;48.148;-1.656;2022-07-22T10:44:05;23.70;99.90
26964;DHT22;14521;48.148;-1.656;2022-07-22T10:47:53;23.60;99.90
26964;DHT22;14521;48.148;-1.656;2022-07-22T10:51:19;23.60;99.90
26964;DHT22;14521;48.148;-1.656;2022-07-22T10:58:41;23.50;99.90
26964;DHT22;14521;48.148;-1.656;2022-07-22T11:02:04;23.60;99.90
26964;DHT22;14521;48.148;-1.656;2022-07-22T11:05:27;23.60;99.90
26964;DHT22;14521;48.148;-1.656;2022-07-22T11:09:02;23.50;99.90
26964;DHT22;14521;48.148;-1.656;2022-07-22T11:12:27;23.40;99.90
26964;DHT22;14521;48.148;-1.656;2022-07-22T11:15:51;23.30;99.90
26964;DHT22;14521;48.148;-1.656;2022-07-22T11:19:14;23.60;99.90
26964;DHT22;14521;48.148;-1.656;2022-07-22T11:22:37;23.70;99.90
26964;DHT22;14521;48.148;-1.656;2022-07-22T11:26:00;23.60;99.90
26964;DHT22;14521;48.148;-1.656;2022-07-22T11:29:28;23.70;99.90
26964;DHT22;14521;48.148;-1.656;2022-07-22T11:32:51;23.80;99.90
26964;DHT22;14521;48.148;-1.656;2022-07-22T11:36:13;23.80;99.70
26964;DHT22;14521;48.148;-1.656;2022-07-22T11:39:36;23.70;99.30
26964;DHT22;14521;48.148;-1.656;2022-07-22T11:42:38;23.70;99.10
26964;DHT22;14521;48.148;-1.656;2022-07-22T11:45:55;23.80;99.00
26964;DHT22;14521;48.148;-1.656;2022-07-22T11:48:58;24.00;98.60
26964;DHT22;14521;48.148;-1.656;2022-07-22T11:52:02;24.00;98.50
26964;DHT22;14521;48.148;-1.656;2022-07-22T11:55:23;24.00;99.10
26964;DHT22;14521;48.148;-1.656;2022-07-22T11:58:47;24.00;98.30
26964;DHT22;14521;48.148;-1.656;2022-07-22T12:02:12;24.00;98.00
26964;DHT22;14521;48.148;-1.656;2022-07-22T12:05:36;24.10;98.50
26964;DHT22;14521;48.148;-1.656;2022-07-22T12:09:10;24.20;97.10
26964;DHT22;14521;48.148;-1.656;2022-07-22T12:12:42;24.10;97.10
26964;DHT22;14521;48.148;-1.656;2022-07-22T12:16:26;24.40;97.00
26964;DHT22;14521;48.148;-1.656;2022-07-22T12:19:49;24.60;96.50
26964;DHT22;14521;48.148;-1.656;2022-07-22T12:23:12;24.80;96.20
26964;DHT22;14521;48.148;-1.656;2022-07-22T12:30:11;25.00;95.90
26964;DHT22;14521;48.148;-1.656;2022-07-22T12:33:34;25.00;95.20
26964;DHT22;14521;48.148;-1.656;2022-07-22T12:36:57;25.10;95.30
26964;DHT22;14521;48.148;-1.656;2022-07-22T12:40:21;25.20;95.10
26964;DHT22;14521;48.148;-1.656;2022-07-22T12:43:43;25.20;94.70
26964;DHT22;14521;48.148;-1.656;2022-07-22T12:47:07;25.20;94.80
26964;DHT22;14521;48.148;-1.656;2022-07-22T12:53:58;25.30;94.60
26964;DHT22;14521;48.148;-1.656;2022-07-22T12:57:22;25.30;94.30
26964;DHT22;14521;48.148;-1.656;2022-07-22T13:00:47;25.30;94.30
26964;DHT22;14521;48.148;-1.656;2022-07-22T13:04:10;25.30;94.20
26964;DHT22;14521;48.148;-1.656;2022-07-22T13:07:32;25.40;94.30
26964;DHT22;14521;48.148;-1.656;2022-07-22T13:10:59;25.50;94.70
26964;DHT22;14521;48.148;-1.656;2022-07-22T13:14:22;25.40;94.20
26964;DHT22;14521;48.148;-1.656;2022-07-22T13:17:45;25.30;94.40
26964;DHT22;14521;48.148;-1.656;2022-07-22T13:21:07;25.20;94.10
26964;DHT22;14521;48.148;-1.656;2022-07-22T13:24:29;25.20;93.80
26964;DHT22;14521;48.148;-1.656;2022-07-22T13:27:53;25.20;93.70
26964;DHT22;14521;48.148;-1.656;2022-07-22T13:31:15;25.20;93.50
26964;DHT22;14521;48.148;-1.656;2022-07-22T13:34:38;25.20;93.20
26964;DHT22;14521;48.148;-1.656;2022-07-22T13:38:00;25.30;93.20
26964;DHT22;14521;48.148;-1.656;2022-07-22T13:41:24;25.30;92.90
26964;DHT22;14521;48.148;-1.656;2022-07-22T13:44:48;25.30;92.80
26964;DHT22;14521;48.148;-1.656;2022-07-22T13:48:10;25.20;92.60
26964;DHT22;14521;48.148;-1.656;2022-07-22T13:51:32;25.20;92.60
26964;DHT22;14521;48.148;-1.656;2022-07-22T13:54:54;25.20;92.60
26964;DHT22;14521;48.148;-1.656;2022-07-22T13:58:17;25.20;92.40
26964;DHT22;14521;48.148;-1.656;2022-07-22T14:01:39;25.30;92.70
26964;DHT22;14521;48.148;-1.656;2022-07-22T14:05:02;25.30;92.10
26964;DHT22;14521;48.148;-1.656;2022-07-22T14:08:24;25.30;91.90
26964;DHT22;14521;48.148;-1.656;2022-07-22T14:11:47;25.30;91.60
26964;DHT22;14521;48.148;-1.656;2022-07-22T14:15:09;25.30;91.30
26964;DHT22;14521;48.148;-1.656;2022-07-22T14:18:32;25.30;91.10
26964;DHT22;14521;48.148;-1.656;2022-07-22T14:21:54;25.20;90.80
26964;DHT22;14521;48.148;-1.656;2022-07-22T14:25:17;25.20;90.80
26964;DHT22;14521;48.148;-1.656;2022-07-22T14:28:39;25.20;90.50
26964;DHT22;14521;48.148;-1.656;2022-07-22T14:32:01;25.20;90.50
26964;DHT22;14521;48.148;-1.656;2022-07-22T14:35:23;25.30;90.30
26964;DHT22;14521;48.148;-1.656;2022-07-22T14:38:46;25.20;90.00
26964;DHT22;14521;48.148;-1.656;2022-07-22T14:42:08;25.20;90.00
26964;DHT22;14521;48.148;-1.656;2022-07-22T14:45:30;25.20;89.40
26964;DHT22;14521;48.148;-1.656;2022-07-22T14:48:53;25.20;89.80
26964;DHT22;14521;48.148;-1.656;2022-07-22T14:52:15;25.20;89.00
26964;DHT22;14521;48.148;-1.656;2022-07-22T14:55:38;25.20;88.70
26964;DHT22;14521;48.148;-1.656;2022-07-22T14:59:00;25.30;88.70
26964;DHT22;14521;48.148;-1.656;2022-07-22T15:02:24;25.20;86.60
26964;DHT22;14521;48.148;-1.656;2022-07-22T15:05:47;25.30;87.10
26964;DHT22;14521;48.148;-1.656;2022-07-22T15:09:09;25.20;87.30
26964;DHT22;14521;48.148;-1.656;2022-07-22T15:12:31;25.20;86.50
26964;DHT22;14521;48.148;-1.656;2022-07-22T15:16:10;25.20;86.10
26964;DHT22;14521;48.148;-1.656;2022-07-22T15:19:34;25.30;86.10
26964;DHT22;14521;48.148;-1.656;2022-07-22T15:22:57;25.30;86.00
26964;DHT22;14521;48.148;-1.656;2022-07-22T15:26:19;25.30;86.00
26964;DHT22;14521;48.148;-1.656;2022-07-22T15:29:41;25.30;86.10
26964;DHT22;14521;48.148;-1.656;2022-07-22T15:33:04;25.30;85.90
26964;DHT22;14521;48.148;-1.656;2022-07-22T15:36:26;25.30;85.80
26964;DHT22;14521;48.148;-1.656;2022-07-22T15:39:48;25.30;85.30
26964;DHT22;14521;48.148;-1.656;2022-07-22T15:43:11;25.30;84.80
26964;DHT22;14521;48.148;-1.656;2022-07-22T15:46:35;25.20;84.60
26964;DHT22;14521;48.148;-1.656;2022-07-22T15:49:57;25.20;84.60
26964;DHT22;14521;48.148;-1.656;2022-07-22T15:53:20;25.20;84.30
26964;DHT22;14521;48.148;-1.656;2022-07-22T15:56:42;25.30;83.90
26964;DHT22;14521;48.148;-1.656;2022-07-22T16:00:06;25.30;83.50
26964;DHT22;14521;48.148;-1.656;2022-07-22T16:03:34;25.30;83.40
26964;DHT22;14521;48.148;-1.656;2022-07-22T16:06:56;25.30;82.10
26964;DHT22;14521;48.148;-1.656;2022-07-22T16:10:20;25.30;81.80
26964;DHT22;14521;48.148;-1.656;2022-07-22T16:13:42;25.30;81.40
26964;DHT22;14521;48.148;-1.656;2022-07-22T16:17:04;25.30;81.50
26964;DHT22;14521;48.148;-1.656;2022-07-22T16:20:27;25.20;80.20
26964;DHT22;14521;48.148;-1.656;2022-07-22T16:23:49;25.20;79.20
26964;DHT22;14521;48.148;-1.656;2022-07-22T16:27:11;25.10;79.20
26964;DHT22;14521;48.148;-1.656;2022-07-22T16:30:34;25.00;79.40
26964;DHT22;14521;48.148;-1.656;2022-07-22T16:33:56;25.10;78.90
26964;DHT22;14521;48.148;-1.656;2022-07-22T16:37:18;25.10;78.80
26964;DHT22;14521;48.148;-1.656;2022-07-22T16:40:44;25.10;78.30
26964;DHT22;14521;48.148;-1.656;2022-07-22T16:44:06;25.10;78.50
26964;DHT22;14521;48.148;-1.656;2022-07-22T16:47:28;25.10;78.70
26964;DHT22;14521;48.148;-1.656;2022-07-22T16:50:51;25.20;78.50
26964;DHT22;14521;48.148;-1.656;2022-07-22T16:54:13;25.20;78.60
26964;DHT22;14521;48.148;-1.656;2022-07-22T16:57:36;25.10;78.70
26964;DHT22;14521;48.148;-1.656;2022-07-22T17:00:58;25.00;78.40
26964;DHT22;14521;48.148;-1.656;2022-07-22T17:04:21;25.10;78.50
26964;DHT22;14521;48.148;-1.656;2022-07-22T17:07:43;25.00;78.10
26964;DHT22;14521;48.148;-1.656;2022-07-22T17:11:06;25.00;78.20
26964;DHT22;14521;48.148;-1.656;2022-07-22T17:14:29;25.00;78.30
26964;DHT22;14521;48.148;-1.656;2022-07-22T17:17:51;25.10;78.50
26964;DHT22;14521;48.148;-1.656;2022-07-22T17:21:13;25.10;78.60
26964;DHT22;14521;48.148;-1.656;2022-07-22T17:24:36;25.20;78.80
26964;DHT22;14521;48.148;-1.656;2022-07-22T17:27:58;25.20;78.90
26964;DHT22;14521;48.148;-1.656;2022-07-22T17:31:21;25.10;78.80
26964;DHT22;14521;48.148;-1.656;2022-07-22T17:34:45;25.10;79.00
26964;DHT22;14521;48.148;-1.656;2022-07-22T17:38:10;25.10;78.80
26964;DHT22;14521;48.148;-1.656;2022-07-22T17:41:32;25.10;78.60
26964;DHT22;14521;48.148;-1.656;2022-07-22T17:44:55;25.10;78.00
26964;DHT22;14521;48.148;-1.656;2022-07-22T17:48:17;25.10;78.40
26964;DHT22;14521;48.148;-1.656;2022-07-22T17:51:40;25.10;77.40
26964;DHT22;14521;48.148;-1.656;2022-07-22T17:55:02;25.20;76.10
26964;DHT22;14521;48.148;-1.656;2022-07-22T17:58:24;24.90;77.20
26964;DHT22;14521;48.148;-1.656;2022-07-22T18:01:47;24.50;77.40
26964;DHT22;14521;48.148;-1.656;2022-07-22T18:05:09;24.30;77.90
26964;DHT22;14521;48.148;-1.656;2022-07-22T18:08:33;24.20;78.10
26964;DHT22;14521;48.148;-1.656;2022-07-22T18:11:56;24.10;77.30
26964;DHT22;14521;48.148;-1.656;2022-07-22T18:15:18;24.00;77.30
26964;DHT22;14521;48.148;-1.656;2022-07-22T18:18:41;24.00;77.60
26964;DHT22;14521;48.148;-1.656;2022-07-22T18:22:03;24.50;76.90
26964;DHT22;14521;48.148;-1.656;2022-07-22T18:25:25;24.90;76.20
26964;DHT22;14521;48.148;-1.656;2022-07-22T18:28:48;25.00;74.00
26964;DHT22;14521;48.148;-1.656;2022-07-22T18:32:11;25.20;74.20
26964;DHT22;14521;48.148;-1.656;2022-07-22T18:35:34;25.30;75.10
26964;DHT22;14521;48.148;-1.656;2022-07-22T18:38:57;25.40;76.20
26964;DHT22;14521;48.148;-1.656;2022-07-22T18:42:20;25.40;76.90
26964;DHT22;14521;48.148;-1.656;2022-07-22T18:45:43;25.50;77.60
26964;DHT22;14521;48.148;-1.656;2022-07-22T18:49:05;25.50;78.10
26964;DHT22;14521;48.148;-1.656;2022-07-22T18:52:27;25.50;78.30
26964;DHT22;14521;48.148;-1.656;2022-07-22T18:55:50;25.60;77.60
26964;DHT22;14521;48.148;-1.656;2022-07-22T18:59:13;25.60;77.50
26964;DHT22;14521;48.148;-1.656;2022-07-22T19:02:35;25.60;77.00
26964;DHT22;14521;48.148;-1.656;2022-07-22T19:05:57;25.70;77.10
26964;DHT22;14521;48.148;-1.656;2022-07-22T19:09:20;25.70;77.00
26964;DHT22;14521;48.148;-1.656;2022-07-22T19:12:49;25.70;77.00
26964;DHT22;14521;48.148;-1.656;2022-07-22T19:16:11;25.70;77.30
26964;DHT22;14521;48.148;-1.656;2022-07-22T19:19:34;25.70;77.50
26964;DHT22;14521;48.148;-1.656;2022-07-22T19:22:56;25.70;76.90
26964;DHT22;14521;48.148;-1.656;2022-07-22T19:26:18;25.80;77.00
26964;DHT22;14521;48.148;-1.656;2022-07-22T19:29:41;25.70;77.00
26964;DHT22;14521;48.148;-1.656;2022-07-22T19:33:03;25.70;76.60
26964;DHT22;14521;48.148;-1.656;2022-07-22T19:36:26;25.70;76.00
26964;DHT22;14521;48.148;-1.656;2022-07-22T19:39:50;25.70;76.20
26964;DHT22;14521;48.148;-1.656;2022-07-22T19:43:13;25.70;77.00
26964;DHT22;14521;48.148;-1.656;2022-07-22T19:46:35;25.60;75.40
26964;DHT22;14521;48.148;-1.656;2022-07-22T19:49:58;25.70;75.50
26964;DHT22;14521;48.148;-1.656;2022-07-22T19:53:20;25.70;75.00
26964;DHT22;14521;48.148;-1.656;2022-07-22T19:56:42;25.70;74.70
26964;DHT22;14521;48.148;-1.656;2022-07-22T20:00:06;25.70;75.00
26964;DHT22;14521;48.148;-1.656;2022-07-22T20:03:35;25.70;74.20
26964;DHT22;14521;48.148;-1.656;2022-07-22T20:06:58;25.70;74.90
26964;DHT22;14521;48.148;-1.656;2022-07-22T20:10:21;25.70;74.20
26964;DHT22;14521;48.148;-1.656;2022-07-22T20:13:43;25.70;74.80
26964;DHT22;14521;48.148;-1.656;2022-07-22T20:17:05;25.70;75.10
26964;DHT22;14521;48.148;-1.656;2022-07-22T20:20:28;25.80;75.20
26964;DHT22;14521;48.148;-1.656;2022-07-22T20:23:53;25.80;75.60
26964;DHT22;14521;48.148;-1.656;2022-07-22T20:27:15;25.70;75.60
26964;DHT22;14521;48.148;-1.656;2022-07-22T20:30:38;25.70;75.50
26964;DHT22;14521;48.148;-1.656;2022-07-22T20:34:01;25.70;76.00
26964;DHT22;14521;48.148;-1.656;2022-07-22T20:37:23;25.70;75.70
26964;DHT22;14521;48.148;-1.656;2022-07-22T20:40:45;25.70;76.50
26964;DHT22;14521;48.148;-1.656;2022-07-22T20:44:08;25.40;71.50
26964;DHT22;14521;48.148;-1.656;2022-07-22T20:47:31;25.10;74.40
26964;DHT22;14521;48.148;-1.656;2022-07-22T20:50:53;25.10;75.60
26964;DHT22;14521;48.148;-1.656;2022-07-22T20:54:15;25.20;75.80
26964;DHT22;14521;48.148;-1.656;2022-07-22T20:57:38;25.20;76.10
26964;DHT22;14521;48.148;-1.656;2022-07-22T21:01:00;25.30;75.80
26964;DHT22;14521;48.148;-1.656;2022-07-22T21:04:22;25.30;76.10
26964;DHT22;14521;48.148;-1.656;2022-07-22T21:07:44;25.30;76.40
26964;DHT22;14521;48.148;-1.656;2022-07-22T21:11:07;25.30;76.50
26964;DHT22;14521;48.148;-1.656;2022-07-22T21:14:29;25.30;76.60
26964;DHT22;14521;48.148;-1.656;2022-07-22T21:17:51;25.30;76.80
26964;DHT22;14521;48.148;-1.656;2022-07-22T21:21:14;25.30;76.60
26964;DHT22;14521;48.148;-1.656;2022-07-22T21:24:36;25.40;76.20
26964;DHT22;14521;48.148;-1.656;2022-07-22T21:27:58;25.40;72.60
26964;DHT22;14521;48.148;-1.656;2022-07-22T21:31:21;25.40;71.20
26964;DHT22;14521;48.148;-1.656;2022-07-22T21:34:46;25.40;70.20
26964;DHT22;14521;48.148;-1.656;2022-07-22T21:38:08;25.40;75.10
26964;DHT22;14521;48.148;-1.656;2022-07-22T21:41:31;25.50;76.50
26964;DHT22;14521;48.148;-1.656;2022-07-22T21:44:53;25.50;76.30